This demonstration page uses our WeatherBlox Daily Observations layout. Learn more.

39.29038, -76.61219

Hourly Observations for February 11, 2019

Temp ( °F °C ) Dew Point ( °F °C ) Humidity (%) Winds ( mph kmh ) Pressure ( in mb ) Visibility ( mi km ) Precip ( " mm )
12:54 am 00:54 undefined 32 0 29 -1.7 88 88 undefined N/A 30.33 1027 N/A 0.05 1.27
1:54 am 01:54 undefined 32 0 29 -1.7 88 88 undefined N/A 30.3 1026 N/A 0.02 0.508
2:54 am 02:54 undefined 32 0 29 -1.7 88 88 undefined N/A 30.3 1026 N/A 0.02 0.508
3:54 am 03:54 undefined 32 0 29 -1.7 88 88 undefined N/A 30.27 1025 N/A 0.05 1.27
4:54 am 04:54 undefined 32 0 29 -1.7 88 88 undefined N/A 30.27 1025 N/A 0.07 1.778
5:54 am 05:54 undefined 32 0 29 -1.7 88 88 undefined N/A 30.24 1024 N/A 0.08 2.032
6:54 am 06:54 undefined 32 0 29 -1.7 88 88 undefined N/A 30.24 1024 N/A 0.04 1.016
7:54 am 07:54 undefined 32 0 29 -1.7 88 88 undefined N/A 30.27 1025 N/A 0.04 1.016
8:54 am 08:54 undefined 32 0 29 -1.7 88 88 undefined N/A 30.27 1025 N/A 0.03 0.762
9:54 am 09:54 undefined 33 0.6 29 -1.7 85 85 undefined N/A 30.27 1025 N/A 0.02 0.508
10:54 am 10:54 undefined 33 0.6 30 -1.1 89 89 undefined N/A 30.27 1025 N/A 0.03 0.762
11:54 am 11:54 undefined 33 0.6 30 -1.1 89 89 undefined N/A 30.27 1025 N/A 0.02 0.508
12:54 pm 12:54 undefined 33 0.6 30 -1.1 89 89 undefined N/A 30.27 1025 N/A 0.01 0.254
1:54 pm 13:54 undefined 34 1.1 30 -1.1 85 85 undefined N/A 30.24 1024 N/A 0.03 0.762
2:54 pm 14:54 undefined 34 1.1 30 -1.1 85 85 undefined N/A 30.24 1024 N/A 0.05 1.27
3:54 pm 15:54 undefined 33 0.6 30 -1.1 89 89 undefined N/A 30.24 1024 N/A 0.03 0.762
4:54 pm 16:54 undefined 33 0.6 29 -1.7 85 85 undefined N/A 30.24 1024 N/A 0.05 1.27
5:54 pm 17:54 undefined 33 0.6 30 -1.1 89 89 undefined N/A 30.27 1025 N/A 0.05 1.27
6:54 pm 18:54 undefined 33 0.6 30 -1.1 89 89 undefined N/A 30.3 1026 N/A 0.03 0.762
7:54 pm 19:54 undefined 34 1.1 30 -1.1 85 85 undefined N/A 30.3 1026 N/A 0.01 0.254
8:54 pm 20:54 undefined 33 0.6 31 -0.6 92 92 undefined N/A 30.33 1027 N/A 0.01 0.254
9:54 pm 21:54 undefined 33 0.6 30 -1.1 89 89 undefined N/A 30.3 1026 N/A 0.01 0.254
10:54 pm 22:54 undefined 33 0.6 30 -1.1 89 89 undefined N/A 30.33 1027 N/A 0.01 0.254
11:54 pm 23:54 undefined 33 0.6 30 -1.1 89 89 undefined N/A 30.3 1026 N/A 0 0

Powered by AerisWeather